Time;durP1;ratioP1;P1;durP2;ratioP2;P2;SDS_P1;SDS_P2;PMS_P1;PMS_P2;Temp;Humidity;BMP_temperature;BMP_pressure;BME280_temperature;BME280_humidity;BME280_pressure;Samples;Min_cycle;Max_cycle;Signal;HPM_P1;HPM_P2
2021/12/08 00:00:06;;;;;;;;;;;;;;;9.57;54.78;99980.38;5003250;27;98513;-59
2021/12/08 00:02:32;;;;;;;;;;;;;;;9.55;54.74;99975.28;5001565;27;98110;-60
2021/12/08 00:04:58;;;;;;;;;;;;;;;9.53;54.85;99961.28;5000627;27;122140;-59
2021/12/08 00:07:24;;;;;;;;;;;;;;;9.54;54.71;99967.44;4999957;27;128192;-59
2021/12/08 00:10:12;;;;;;;;;;;;;;;9.51;54.57;99968.81;5000100;27;126738;-59
2021/12/08 00:15:20;;;;;;;;;;;;;;;9.50;54.28;99952.94;4999064;27;97891;-68
2021/12/08 00:17:46;;;;;;;;;;;;;;;9.48;54.88;99950.53;4980378;27;128260;-59
2021/12/08 00:20:12;;;;;;;;;;;;;;;9.47;54.87;99940.84;4982264;27;128505;-59
2021/12/08 00:22:38;;;;;;;;;;;;;;;9.46;54.77;99941.91;5001395;27;98070;-69
2021/12/08 00:25:05;;;;;;;;;;;;;;;9.45;54.57;99939.50;5000953;27;117618;-59
2021/12/08 00:27:30;;;;;;;;;;;;;;;9.45;54.21;99934.91;5002183;27;99596;-68
2021/12/08 00:29:56;;;;;;;;;;;;;;;9.42;54.78;99932.75;5000323;27;128607;-68
2021/12/08 00:32:26;;;;;;;;;;;;;;;9.41;54.88;99925.78;5000418;27;126032;-68
2021/12/08 00:34:52;;;;;;;;;;;;;;;9.41;55.01;99925.78;5002082;27;97873;-68
2021/12/08 00:37:18;;;;;;;;;;;;;;;9.40;54.75;99915.31;4982045;27;128110;-59
2021/12/08 00:39:44;;;;;;;;;;;;;;;9.39;54.48;99919.06;5001027;27;105772;-68
2021/12/08 00:42:10;;;;;;;;;;;;;;;9.37;54.17;99913.97;4999001;27;127739;-60
2021/12/08 00:44:36;;;;;;;;;;;;;;;9.36;54.07;99909.66;4965524;27;121729;-68
2021/12/08 00:47:03;;;;;;;;;;;;;;;9.35;54.31;99902.66;5000720;27;113116;-67
2021/12/08 00:49:29;;;;;;;;;;;;;;;9.34;54.24;99899.16;4965719;27;100760;-59
2021/12/08 00:51:55;;;;;;;;;;;;;;;9.33;54.18;99896.75;4966040;27;97994;-59
2021/12/08 00:54:21;;;;;;;;;;;;;;;9.32;54.43;99890.56;5000646;27;120810;-68
2021/12/08 00:56:47;;;;;;;;;;;;;;;9.31;54.25;99891.66;4999905;27;126297;-67
2021/12/08 00:59:12;;;;;;;;;;;;;;;9.30;54.48;99887.34;5000408;27;126600;-69
2021/12/08 01:01:38;;;;;;;;;;;;;;;9.29;54.57;99880.34;4998961;27;128290;-59
2021/12/08 01:04:05;;;;;;;;;;;;;;;9.27;54.84;99877.13;5000694;27;97974;-59
2021/12/08 01:06:31;;;;;;;;;;;;;;;9.26;54.44;99866.63;4999358;27;123336;-59
2021/12/08 01:08:57;;;;;;;;;;;;;;;9.26;54.90;99863.94;5001068;27;128192;-69
2021/12/08 01:11:23;;;;;;;;;;;;;;;9.26;54.60;99863.94;4980996;27;127497;-60
2021/12/08 01:13:49;;;;;;;;;;;;;;;9.25;54.32;99859.66;5000520;27;97736;-59
2021/12/08 01:16:15;;;;;;;;;;;;;;;9.24;54.43;99863.44;5000419;27;99107;-59
2021/12/08 01:18:41;;;;;;;;;;;;;;;9.23;54.21;99856.41;5000780;27;98363;-68
2021/12/08 01:21:08;;;;;;;;;;;;;;;9.23;54.27;99859.09;4981032;27;127226;-59
2021/12/08 01:23:35;;;;;;;;;;;;;;;9.21;54.53;99856.69;5000231;27;98064;-68
2021/12/08 01:26:01;;;;;;;;;;;;;;;9.21;54.60;99863.97;5000522;27;126448;-69
2021/12/08 01:28:28;;;;;;;;;;;;;;;9.20;54.02;99860.47;5000622;27;108065;-59
2021/12/08 01:30:54;;;;;;;;;;;;;;;9.20;54.61;99854.31;5000315;27;98398;-68
2021/12/08 01:33:20;;;;;;;;;;;;;;;9.17;54.50;99855.63;5001426;27;97898;-59
2021/12/08 01:35:46;;;;;;;;;;;;;;;9.18;54.43;99851.88;5000860;27;98325;-69
2021/12/08 01:38:12;;;;;;;;;;;;;;;9.17;54.41;99850.25;5000570;27;110283;-59
2021/12/08 01:40:38;;;;;;;;;;;;;;;9.17;54.81;99849.47;4980830;27;128540;-59
2021/12/08 01:43:11;;;;;;;;;;;;;;;9.17;54.54;99852.94;5000905;27;97739;-67
2021/12/08 01:48:22;;;;;;;;;;;;;;;9.15;54.57;99843.53;5003588;27;98323;-59
2021/12/08 01:50:52;;;;;;;;;;;;;;;9.14;54.29;99845.41;5001609;27;126741;-60
2021/12/08 01:53:18;;;;;;;;;;;;;;;9.14;54.36;99845.41;5002617;27;119487;-68
2021/12/08 01:55:44;;;;;;;;;;;;;;;9.14;54.41;99836.56;5002396;27;127097;-59
2021/12/08 01:58:10;;;;;;;;;;;;;;;9.13;54.11;99821.50;5001683;27;127030;-68
2021/12/08 02:00:40;;;;;;;;;;;;;;;9.12;54.08;99819.88;5002920;27;109736;-59
2021/12/08 02:03:06;;;;;;;;;;;;;;;9.13;53.87;99814.25;5002643;27;119057;-68
2021/12/08 02:05:32;;;;;;;;;;;;;;;9.12;54.64;99806.44;5003195;27;127898;-68
2021/12/08 02:07:58;;;;;;;;;;;;;;;9.10;54.41;99810.19;5002798;27;105433;-68
2021/12/08 02:10:25;;;;;;;;;;;;;;;9.10;54.37;99812.09;5003387;27;98007;-69
2021/12/08 02:12:51;;;;;;;;;;;;;;;9.10;54.28;99815.56;5003053;27;97770;-69
2021/12/08 02:15:19;;;;;;;;;;;;;;;9.08;54.49;99809.69;5002826;27;99500;-60
2021/12/08 02:17:46;;;;;;;;;;;;;;;9.09;54.08;99797.03;5003425;27;98610;-59
2021/12/08 02:20:12;;;;;;;;;;;;;;;9.09;54.17;99799.72;5002370;27;98163;-59
2021/12/08 02:22:38;;;;;;;;;;;;;;;9.09;54.57;99786.28;5001897;27;122216;-59
2021/12/08 02:25:06;;;;;;;;;;;;;;;9.08;54.36;99784.69;5002878;27;114563;-59
2021/12/08 02:27:33;;;;;;;;;;;;;;;9.08;54.43;99773.94;5002925;27;98869;-59
2021/12/08 02:30:08;;;;;;;;;;;;;;;9.07;54.00;99778.47;5003409;27;97854;-67
2021/12/08 02:49:01;;;;;;;;;;;;;;;9.03;54.13;99722.84;5001363;27;98152;-68
2021/12/08 02:51:27;;;;;;;;;;;;;;;9.01;54.59;99720.44;5001418;27;127440;-68
2021/12/08 02:53:53;;;;;;;;;;;;;;;9.01;54.16;99715.06;5001212;27;122012;-59
2021/12/08 02:56:19;;;;;;;;;;;;;;;9.00;53.82;99716.16;4967209;27;98237;-59
2021/12/08 02:58:46;;;;;;;;;;;;;;;9.00;54.66;99715.31;4982342;27;98779;-69
2021/12/08 03:01:12;;;;;;;;;;;;;;;8.98;54.26;99712.13;4983337;27;125898;-67
2021/12/08 03:03:38;;;;;;;;;;;;;;;8.98;54.19;99712.13;5002651;27;99101;-69
2021/12/08 03:06:04;;;;;;;;;;;;;;;8.97;53.97;99713.22;5002298;27;112499;-59
2021/12/08 03:08:30;;;;;;;;;;;;;;;8.95;54.15;99716.16;5002972;27;98203;-69
2021/12/08 03:10:56;;;;;;;;;;;;;;;8.94;53.75;99719.94;5001609;27;128358;-59
2021/12/08 03:13:32;;;;;;;;;;;;;;;8.94;54.06;99721.81;5000728;27;102119;-68
2021/12/08 03:15:58;;;;;;;;;;;;;;;8.93;54.39;99721.00;5002166;27;98528;-69
2021/12/08 03:18:31;;;;;;;;;;;;;;;8.92;54.51;99719.41;5001846;27;98503;-59
2021/12/08 03:20:57;;;;;;;;;;;;;;;8.93;54.16;99729.06;5002443;27;98676;-68
2021/12/08 03:23:30;;;;;;;;;;;;;;;8.93;54.29;99730.97;5000203;27;110513;-59
2021/12/08 03:25:58;;;;;;;;;;;;;;;8.92;53.95;99727.47;4968475;27;99651;-68
2021/12/08 03:28:29;;;;;;;;;;;;;;;8.93;54.66;99728.28;5003078;27;98414;-68
2021/12/08 03:31:02;;;;;;;;;;;;;;;8.93;54.21;99731.75;5001771;27;98010;-69
2021/12/08 03:33:28;;;;;;;;;;;;;;;8.93;54.33;99722.91;5003241;27;97832;-59
2021/12/08 03:35:54;;;;;;;;;;;;;;;8.91;54.10;99717.78;4982696;27;108372;-59
2021/12/08 03:38:20;;;;;;;;;;;;;;;8.92;54.50;99723.97;4982903;27;103339;-58
2021/12/08 03:40:47;;;;;;;;;;;;;;;8.90;54.17;99723.44;5001945;27;98291;-68
2021/12/08 03:43:13;;;;;;;;;;;;;;;8.90;54.46;99724.25;5002133;27;98301;-69
2021/12/08 03:45:44;;;;;;;;;;;;;;;8.88;54.15;99712.16;5002058;27;98547;-68
2021/12/08 03:48:13;;;;;;;;;;;;;;;8.89;53.91;99719.16;5001257;27;98049;-60
2021/12/08 03:50:40;;;;;;;;;;;;;;;8.88;54.31;99712.94;5001430;27;98154;-59
2021/12/08 03:53:07;;;;;;;;;;;;;;;8.88;54.54;99706.78;5001126;27;98086;-58
2021/12/08 03:55:33;;;;;;;;;;;;;;;8.85;53.94;99700.88;5001314;27;98378;-68
2021/12/08 03:57:59;;;;;;;;;;;;;;;8.87;53.97;99705.16;4981968;27;128166;-59
2021/12/08 04:00:27;;;;;;;;;;;;;;;8.85;54.29;99692.81;5000775;27;127327;-59
2021/12/08 04:02:53;;;;;;;;;;;;;;;8.83;54.26;99692.28;5001369;27;97877;-67
2021/12/08 04:05:30;;;;;;;;;;;;;;;8.83;54.31;99688.78;5002883;27;97836;-59
2021/12/08 04:08:02;;;;;;;;;;;;;;;8.81;54.08;99675.63;5000564;27;98493;-68
2021/12/08 04:10:28;;;;;;;;;;;;;;;8.81;53.69;99674.84;5003123;27;97858;-68
2021/12/08 04:12:54;;;;;;;;;;;;;;;8.80;53.71;99681.25;4966589;27;98455;-59
2021/12/08 04:15:22;;;;;;;;;;;;;;;8.79;53.54;99682.34;4982519;27;98098;-68
2021/12/08 04:17:49;;;;;;;;;;;;;;;8.77;54.45;99676.47;5000849;27;123834;-68
2021/12/08 04:20:19;;;;;;;;;;;;;;;8.76;53.94;99672.13;4982449;27;124584;-68
2021/12/08 04:22:49;;;;;;;;;;;;;;;8.76;54.29;99680.19;5001547;27;116392;-68
2021/12/08 04:25:25;;;;;;;;;;;;;;;8.75;54.37;99687.47;5001398;27;98401;-59
2021/12/08 04:27:52;;;;;;;;;;;;;;;8.72;53.98;99693.38;5000798;27;98217;-69
2021/12/08 04:30:31;;;;;;;;;;;;;;;8.72;54.13;99690.69;5001920;27;97975;-59
2021/12/08 04:32:56;;;;;;;;;;;;;;;8.72;53.84;99692.56;5000650;27;98093;-68
2021/12/08 04:35:23;;;;;;;;;;;;;;;8.71;54.17;99682.91;4999728;27;98428;-58
2021/12/08 04:37:52;;;;;;;;;;;;;;;8.70;54.34;99682.13;5001128;27;109475;-68
2021/12/08 04:41:13;;;;;;;;;;;;;;;8.71;54.15;99683.72;5001332;27;98370;-68
2021/12/08 04:43:31;;;;;;;;;;;;;;;8.69;54.22;99685.09;4989935;27;98127;-68
2021/12/08 04:54:02;;;;;;;;;;;;;;;8.68;54.30;99683.44;4999982;27;97821;-59
2021/12/08 05:04:43;;;;;;;;;;;;;;;8.66;54.03;99681.06;4982466;27;98598;-60
2021/12/08 05:07:33;;;;;;;;;;;;;;;8.66;54.32;99675.69;5000220;27;98442;-69
2021/12/08 05:10:01;;;;;;;;;;;;;;;8.65;54.21;99684.81;5001045;27;98615;-68
2021/12/08 05:12:30;;;;;;;;;;;;;;;8.66;54.42;99685.63;5002406;27;97938;-68
2021/12/08 05:15:10;;;;;;;;;;;;;;;8.64;53.88;99693.13;5000448;27;97920;-59
2021/12/08 05:17:42;;;;;;;;;;;;;;;8.65;53.91;99686.72;4981687;27;98472;-68
2021/12/08 05:20:38;;;;;;;;;;;;;;;8.65;53.93;99692.88;4966213;27;115056;-59
2021/12/08 05:23:08;;;;;;;;;;;;;;;8.66;54.41;99699.06;4974101;27;98019;-58
2021/12/08 05:25:35;;;;;;;;;;;;;;;8.66;54.24;99691.00;5002637;27;98211;-69
2021/12/08 05:28:03;;;;;;;;;;;;;;;8.64;54.00;99693.94;5003709;27;99443;-68
2021/12/08 05:30:33;;;;;;;;;;;;;;;8.66;54.31;99693.69;5003159;27;120352;-60
2021/12/08 05:32:59;;;;;;;;;;;;;;;8.65;54.48;99692.88;5002686;27;117424;-59
2021/12/08 05:35:28;;;;;;;;;;;;;;;8.66;53.81;99694.50;5004765;27;98247;-59
2021/12/08 05:37:53;;;;;;;;;;;;;;;8.66;53.99;99694.50;5003009;27;126657;-59
2021/12/08 05:40:41;;;;;;;;;;;;;;;8.66;54.20;99697.16;5003125;27;126314;-59
2021/12/08 05:43:07;;;;;;;;;;;;;;;8.66;53.82;99689.13;5000519;27;122712;-59
2021/12/08 05:45:33;;;;;;;;;;;;;;;8.66;54.22;99686.44;4981393;27;115340;-59
2021/12/08 05:47:59;;;;;;;;;;;;;;;8.65;54.23;99692.09;5001441;27;98620;-60
2021/12/08 05:50:32;;;;;;;;;;;;;;;8.65;54.25;99700.94;5000868;27;129796;-59
2021/12/08 05:52:58;;;;;;;;;;;;;;;8.65;54.29;99689.41;5001583;27;98194;-59
2021/12/08 05:55:24;;;;;;;;;;;;;;;8.63;53.85;99692.34;4982850;27;97851;-59
2021/12/08 05:57:50;;;;;;;;;;;;;;;8.65;53.80;99694.78;5000352;27;127037;-59
2021/12/08 06:00:27;;;;;;;;;;;;;;;8.64;54.13;99691.25;4948963;27;119255;-59
2021/12/08 06:02:53;;;;;;;;;;;;;;;8.64;54.16;99693.13;5001285;27;98832;-58
2021/12/08 06:05:19;;;;;;;;;;;;;;;8.64;53.80;99698.50;4982944;27;98204;-59
2021/12/08 06:07:45;;;;;;;;;;;;;;;8.64;54.18;99699.31;4981993;27;104249;-59
2021/12/08 06:10:15;;;;;;;;;;;;;;;8.64;54.38;99695.81;4999967;27;128515;-58
2021/12/08 06:12:41;;;;;;;;;;;;;;;8.62;54.19;99704.16;4999880;27;102092;-59
2021/12/08 06:15:07;;;;;;;;;;;;;;;8.62;54.27;99708.75;5000283;27;118318;-59
2021/12/08 06:17:33;;;;;;;;;;;;;;;8.63;53.82;99713.03;5000391;27;119447;-59
2021/12/08 06:20:00;;;;;;;;;;;;;;;8.62;54.51;99706.06;5000372;27;128984;-59
2021/12/08 06:22:26;;;;;;;;;;;;;;;8.62;54.32;99703.38;5001320;27;98369;-59
2021/12/08 06:24:52;;;;;;;;;;;;;;;8.62;53.91;99704.16;5000525;27;97743;-59
2021/12/08 06:27:18;;;;;;;;;;;;;;;8.64;53.92;99711.94;5001706;27;109400;-59
2021/12/08 06:29:45;;;;;;;;;;;;;;;8.64;53.93;99706.56;4999982;27;119172;-59
2021/12/08 06:32:11;;;;;;;;;;;;;;;8.64;54.24;99704.69;4998757;27;98017;-59
2021/12/08 06:34:38;;;;;;;;;;;;;;;8.65;54.06;99710.88;4998598;27;118352;-59
2021/12/08 06:37:13;;;;;;;;;;;;;;;8.65;53.76;99703.63;4998063;27;125988;-59
2021/12/08 06:40:00;;;;;;;;;;;;;;;8.66;53.75;99704.44;5001465;27;98833;-59
2021/12/08 06:42:28;;;;;;;;;;;;;;;8.66;53.67;99693.69;5000707;27;98751;-59
2021/12/08 06:44:55;;;;;;;;;;;;;;;8.67;54.23;99696.09;4999742;27;109361;-58
2021/12/08 06:47:22;;;;;;;;;;;;;;;8.68;54.37;99695.00;4999370;27;107486;-59
2021/12/08 06:49:49;;;;;;;;;;;;;;;8.70;54.03;99697.44;4999438;27;98491;-59
2021/12/08 06:52:18;;;;;;;;;;;;;;;8.71;53.62;99691.78;4997805;27;98381;-59
2021/12/08 06:54:47;;;;;;;;;;;;;;;8.71;53.44;99688.28;4997156;27;98057;-59
2021/12/08 06:57:19;;;;;;;;;;;;;;;8.75;54.15;99684.78;4982799;27;121083;-59
2021/12/08 06:59:57;;;;;;;;;;;;;;;8.77;54.27;99687.22;4989099;27;98020;-59
2021/12/08 07:02:53;;;;;;;;;;;;;;;8.79;53.87;99693.09;4982538;27;98238;-68
2021/12/08 07:05:31;;;;;;;;;;;;;;;8.81;54.16;99689.06;4999213;27;98569;-67
2021/12/08 07:08:04;;;;;;;;;;;;;;;8.86;53.73;99688.25;5000957;27;98047;-70
2021/12/08 07:10:37;;;;;;;;;;;;;;;8.91;53.75;99698.16;5001973;27;97962;-70
2021/12/08 07:13:09;;;;;;;;;;;;;;;8.93;53.72;99702.19;5002395;27;98930;-70
2021/12/08 07:15:41;;;;;;;;;;;;;;;8.95;53.74;99704.59;5001972;27;97977;-69
2021/12/08 07:18:11;;;;;;;;;;;;;;;8.98;53.47;99704.06;4999960;27;121036;-69
2021/12/08 07:20:45;;;;;;;;;;;;;;;9.00;54.12;99702.72;5001719;27;98314;-60
2021/12/08 07:23:15;;;;;;;;;;;;;;;9.04;53.71;99713.72;4982551;27;98008;-69
2021/12/08 07:25:42;;;;;;;;;;;;;;;9.07;53.63;99708.56;4999441;27;118891;-69
2021/12/08 07:28:09;;;;;;;;;;;;;;;9.13;53.90;99701.31;4999155;27;121629;-69
2021/12/08 07:30:41;;;;;;;;;;;;;;;9.18;53.69;99703.97;4999241;27;120300;-60
2021/12/08 07:33:07;;;;;;;;;;;;;;;9.23;53.67;99706.63;4998881;27;98726;-60
2021/12/08 07:35:41;;;;;;;;;;;;;;;9.29;54.11;99707.41;4999836;27;98097;-69
2021/12/08 07:38:08;;;;;;;;;;;;;;;9.37;53.92;99714.09;4999603;27;98584;-61
2021/12/08 07:40:44;;;;;;;;;;;;;;;9.44;53.59;99714.59;5000681;27;98632;-61
2021/12/08 07:43:12;;;;;;;;;;;;;;;9.54;53.40;99711.84;4999140;27;97919;-68
2021/12/08 07:45:41;;;;;;;;;;;;;;;9.61;53.46;99706.97;4998671;27;118945;-60
2021/12/08 07:48:09;;;;;;;;;;;;;;;9.71;52.89;99701.53;4999268;27;115557;-60
2021/12/08 07:50:50;;;;;;;;;;;;;;;9.83;53.47;99696.59;4998645;27;126243;-61
2021/12/08 07:53:17;;;;;;;;;;;;;;;9.96;53.96;99691.66;4996158;27;126469;-60
2021/12/08 07:55:46;;;;;;;;;;;;;;;10.03;53.71;99673.28;4995845;27;98171;-61
2021/12/08 07:58:12;;;;;;;;;;;;;;;10.15;53.36;99681.00;4995862;27;98631;-61
2021/12/08 08:00:46;;;;;;;;;;;;;;;10.29;53.16;99687.34;4996049;27;120759;-62
2021/12/08 08:03:13;;;;;;;;;;;;;;;10.42;53.15;99675.09;4988701;27;127105;-62
2021/12/08 08:05:40;;;;;;;;;;;;;;;10.49;52.99;99679.06;4977869;27;98307;-62
2021/12/08 08:08:07;;;;;;;;;;;;;;;10.54;53.23;99684.41;4959744;27;121079;-62
2021/12/08 08:10:45;;;;;;;;;;;;;;;10.65;53.35;99679.72;4976307;27;129773;-62
2021/12/08 08:13:12;;;;;;;;;;;;;;;10.77;52.72;99682.00;4995288;27;98048;-62
2021/12/08 08:15:43;;;;;;;;;;;;;;;10.97;52.54;99681.75;4977698;27;98482;-62
2021/12/08 08:18:11;;;;;;;;;;;;;;;10.96;53.40;99669.34;4995616;27;98655;-62
2021/12/08 08:20:44;;;;;;;;;;;;;;;10.99;53.13;99673.38;4995573;27;97992;-62
2021/12/08 08:23:10;;;;;;;;;;;;;;;11.03;52.82;99663.59;4996429;27;98696;-62
2021/12/08 08:25:39;;;;;;;;;;;;;;;11.03;52.87;99656.31;4994880;27;118926;-62
2021/12/08 08:28:05;;;;;;;;;;;;;;;11.09;52.93;99654.38;4996647;27;98101;-62
2021/12/08 08:30:38;;;;;;;;;;;;;;;11.17;52.82;99653.72;4996227;27;99067;-62
2021/12/08 08:33:04;;;;;;;;;;;;;;;11.23;52.57;99659.84;4994435;27;125029;-62
2021/12/08 08:35:35;;;;;;;;;;;;;;;11.24;52.71;99654.16;4996223;27;97887;-62
2021/12/08 08:38:03;;;;;;;;;;;;;;;11.13;53.16;99644.59;4987505;27;98427;-62
2021/12/08 08:40:36;;;;;;;;;;;;;;;11.13;53.15;99649.22;4999202;27;99215;-71
2021/12/08 08:43:02;;;;;;;;;;;;;;;11.48;52.39;99643.31;5000608;27;98695;-71
2021/12/08 08:45:35;;;;;;;;;;;;;;;11.72;52.42;99650.50;5000306;27;116943;-71
2021/12/08 08:48:07;;;;;;;;;;;;;;;11.88;52.24;99651.88;4999500;27;100858;-71
2021/12/08 08:50:36;;;;;;;;;;;;;;;11.82;52.53;99654.91;5000092;27;124386;-71
2021/12/08 08:53:02;;;;;;;;;;;;;;;11.76;52.70;99655.00;4998959;27;98203;-71
2021/12/08 08:55:43;;;;;;;;;;;;;;;11.74;52.64;99646.38;5000791;27;111989;-62
2021/12/08 08:58:11;;;;;;;;;;;;;;;11.74;52.85;99645.59;5006282;27;112083;-70
2021/12/08 09:00:47;;;;;;;;;;;;;;;11.78;52.68;99639.31;5007505;27;99183;-62
2021/12/08 09:03:19;;;;;;;;;;;;;;;11.80;52.94;99622.81;5006426;27;98187;-68
2021/12/08 09:05:52;;;;;;;;;;;;;;;11.90;52.87;99624.56;4987653;27;98289;-62
2021/12/08 09:08:18;;;;;;;;;;;;;;;11.98;52.50;99624.69;4998640;27;99318;-62
2021/12/08 09:11:18;;;;;;;;;;;;;;;12.18;52.36;99622.72;5006351;27;98784;-62
2021/12/08 09:14:13;;;;;;;;;;;;;;;12.39;52.21;99623.97;5003026;27;97914;-62
2021/12/08 09:16:57;;;;;;;;;;;;;;;12.50;52.41;99621.88;5006555;27;97757;-62
2021/12/08 09:19:27;;;;;;;;;;;;;;;12.55;52.33;99626.38;4998764;27;128493;-71
2021/12/08 09:22:01;;;;;;;;;;;;;;;12.60;52.77;99628.97;5004961;27;105839;-71
2021/12/08 09:24:38;;;;;;;;;;;;;;;12.63;52.46;99620.28;4985736;27;97988;-62
2021/12/08 09:27:07;;;;;;;;;;;;;;;12.69;52.67;99628.00;5006413;27;97882;-71
2021/12/08 09:29:47;;;;;;;;;;;;;;;12.71;52.64;99623.06;4987264;27;113979;-71
2021/12/08 09:32:20;;;;;;;;;;;;;;;12.73;52.81;99626.28;4999854;27;98575;-71
2021/12/08 09:34:54;;;;;;;;;;;;;;;12.76;52.72;99622.94;5005022;27;98217;-71
2021/12/08 09:37:22;;;;;;;;;;;;;;;12.76;52.84;99616.75;5005659;27;98008;-61
2021/12/08 09:39:59;;;;;;;;;;;;;;;12.76;52.92;99620.25;4986293;27;98537;-62
2021/12/08 09:42:29;;;;;;;;;;;;;;;12.75;52.84;99624.06;4980772;27;98344;-62
2021/12/08 09:44:58;;;;;;;;;;;;;;;12.76;53.15;99620.25;4986017;27;97942;-71
2021/12/08 09:47:29;;;;;;;;;;;;;;;12.80;52.99;99617.75;5006609;27;119066;-70
2021/12/08 09:49:56;;;;;;;;;;;;;;;12.86;52.87;99618.44;4987232;27;100117;-62
2021/12/08 09:52:22;;;;;;;;;;;;;;;12.91;52.87;99619.13;5007194;27;102638;-69
2021/12/08 09:54:48;;;;;;;;;;;;;;;12.90;52.96;99611.34;5006852;27;99533;-67
2021/12/08 09:57:17;;;;;;;;;;;;;;;12.89;53.10;99604.31;4969880;28;97844;-71
2021/12/08 09:59:47;;;;;;;;;;;;;;;12.85;53.25;99595.19;5005310;27;127778;-62
2021/12/08 10:02:16;;;;;;;;;;;;;;;12.83;53.42;99606.31;5005292;27;98238;-62
2021/12/08 10:04:42;;;;;;;;;;;;;;;12.79;53.29;99599.91;4986095;27;98082;-69
2021/12/08 10:07:10;;;;;;;;;;;;;;;12.74;53.37;99600.84;5002719;27;122392;-71
2021/12/08 10:09:36;;;;;;;;;;;;;;;12.72;53.45;99596.81;4985727;27;98586;-70
2021/12/08 10:12:02;;;;;;;;;;;;;;;12.69;53.50;99598.25;5001948;27;105442;-61
2021/12/08 10:14:28;;;;;;;;;;;;;;;12.68;53.64;99596.63;5003445;27;116752;-61
2021/12/08 10:16:54;;;;;;;;;;;;;;;12.68;53.44;99602.03;5000302;27;121972;-61
2021/12/08 10:19:20;;;;;;;;;;;;;;;12.67;53.62;99595.03;4982198;27;117363;-61
2021/12/08 10:21:46;;;;;;;;;;;;;;;12.64;53.78;99590.22;5004386;27;98296;-69
2021/12/08 10:24:15;;;;;;;;;;;;;;;12.64;53.67;99586.72;5003770;27;98311;-69
2021/12/08 10:26:41;;;;;;;;;;;;;;;12.64;53.78;99584.81;5003127;27;98098;-71
2021/12/08 10:29:07;;;;;;;;;;;;;;;12.72;53.73;99586.00;4983279;27;100158;-62
2021/12/08 10:31:42;;;;;;;;;;;;;;;12.79;53.37;99570.19;5000568;27;120925;-71
2021/12/08 10:34:21;;;;;;;;;;;;;;;12.84;53.23;99567.34;4982805;27;98423;-62
2021/12/08 10:36:57;;;;;;;;;;;;;;;12.88;53.66;99568.34;4981900;27;99372;-62
2021/12/08 10:39:33;;;;;;;;;;;;;;;12.94;53.60;99575.25;5001078;27;98685;-71
2021/12/08 10:42:09;;;;;;;;;;;;;;;13.02;53.50;99565.63;4994994;27;98658;-62
2021/12/08 10:45:13;;;;;;;;;;;;;;;13.06;53.22;99553.09;5002474;27;98007;-71
2021/12/08 10:47:54;;;;;;;;;;;;;;;13.11;53.41;99549.47;4997119;27;97935;-71
2021/12/08 10:56:06;;;;;;;;;;;;;;;13.11;53.64;99549.47;4990730;27;97791;-62
2021/12/08 10:58:35;;;;;;;;;;;;;;;13.08;53.63;99541.94;4997846;27;106367;-62
2021/12/08 11:01:13;;;;;;;;;;;;;;;13.02;53.87;99542.06;4997870;27;98044;-62
2021/12/08 11:03:39;;;;;;;;;;;;;;;12.97;54.06;99544.91;4995192;27;98365;-62
2021/12/08 11:06:06;;;;;;;;;;;;;;;12.90;54.26;99551.84;4997604;27;97919;-62
2021/12/08 11:08:39;;;;;;;;;;;;;;;12.84;54.27;99555.75;4998310;27;98102;-61
2021/12/08 11:11:06;;;;;;;;;;;;;;;12.77;54.40;99566.97;4996480;27;120969;-61
2021/12/08 11:13:36;;;;;;;;;;;;;;;12.73;54.50;99563.25;4977957;27;123152;-62
2021/12/08 11:16:20;;;;;;;;;;;;;;;12.68;54.36;99556.06;4997925;27;97701;-62
2021/12/08 11:18:48;;;;;;;;;;;;;;;12.63;54.61;99563.50;4978945;27;97937;-62
2021/12/08 11:21:21;;;;;;;;;;;;;;;12.60;54.52;99561.38;4982754;27;98820;-71
2021/12/08 11:23:49;;;;;;;;;;;;;;;12.55;54.66;99556.09;4981501;27;98083;-62
2021/12/08 11:26:27;;;;;;;;;;;;;;;12.51;54.68;99564.81;4982444;27;98205;-62
2021/12/08 11:28:59;;;;;;;;;;;;;;;12.48;54.62;99541.06;5001845;27;98400;-70
2021/12/08 11:31:28;;;;;;;;;;;;;;;12.45;54.77;99543.56;4975239;27;98967;-71
2021/12/08 11:34:00;;;;;;;;;;;;;;;12.41;54.86;99542.56;4999208;27;120662;-62
2021/12/08 11:36:27;;;;;;;;;;;;;;;12.37;54.95;99546.97;5000942;27;98193;-61
2021/12/08 11:38:53;;;;;;;;;;;;;;;12.32;54.85;99547.88;4999947;27;97931;-62
2021/12/08 11:41:34;;;;;;;;;;;;;;;12.26;55.08;99546.38;5001624;27;128526;-70
2021/12/08 11:44:01;;;;;;;;;;;;;;;12.19;55.11;99549.50;4998975;27;99220;-71
2021/12/08 11:46:27;;;;;;;;;;;;;;;12.12;55.20;99540.19;4996982;27;124566;-61
2021/12/08 11:49:04;;;;;;;;;;;;;;;12.05;55.18;99532.47;4982142;27;99345;-71
2021/12/08 11:51:48;;;;;;;;;;;;;;;11.97;55.56;99520.47;5001146;27;98574;-62
2021/12/08 11:54:32;;;;;;;;;;;;;;;11.92;55.65;99517.88;4999940;27;98743;-61
2021/12/08 11:57:10;;;;;;;;;;;;;;;11.87;55.56;99512.56;5000431;27;98485;-70
2021/12/08 12:00:04;;;;;;;;;;;;;;;11.85;55.44;99517.44;4982670;27;98330;-70
2021/12/08 12:02:33;;;;;;;;;;;;;;;11.87;55.24;99523.38;5001906;27;98078;-71
2021/12/08 12:04:59;;;;;;;;;;;;;;;11.90;55.42;99522.75;4982235;27;100357;-70
2021/12/08 12:07:26;;;;;;;;;;;;;;;11.97;55.21;99533.97;5001739;27;98000;-70
2021/12/08 12:09:52;;;;;;;;;;;;;;;12.03;55.07;99530.09;4984736;27;98155;-70
2021/12/08 12:12:18;;;;;;;;;;;;;;;12.09;55.10;99535.38;4990905;27;115890;-71
2021/12/08 12:14:43;;;;;;;;;;;;;;;12.08;55.07;99526.47;4996027;27;98840;-61
2021/12/08 12:17:10;;;;;;;;;;;;;;;12.05;55.27;99521.66;4999287;27;127422;-70
2021/12/08 12:19:46;;;;;;;;;;;;;;;11.99;55.07;99515.56;4995992;27;98151;-61
2021/12/08 12:22:44;;;;;;;;;;;;;;;11.95;55.25;99516.47;4972926;28;98525;-70
2021/12/08 12:25:46;;;;;;;;;;;;;;;11.90;55.45;99516.56;4076934;27;10000554;-68
2021/12/08 12:28:38;;;;;;;;;;;;;;;11.86;55.66;99527.16;4951695;28;106589;-61
2021/12/08 12:31:20;;;;;;;;;;;;;;;11.82;55.59;99520.72;4917958;28;126533;-70
2021/12/08 12:33:47;;;;;;;;;;;;;;;11.79;55.34;99521.34;4945795;28;98098;-70
2021/12/08 12:36:19;;;;;;;;;;;;;;;11.75;55.58;99525.69;4939744;28;114318;-61
2021/12/08 12:38:45;;;;;;;;;;;;;;;11.70;55.73;99521.19;4938981;28;99115;-70
2021/12/08 12:41:23;;;;;;;;;;;;;;;11.65;55.52;99525.91;4938957;28;128754;-61
2021/12/08 12:43:50;;;;;;;;;;;;;;;11.61;55.87;99533.78;4941297;28;98544;-61
2021/12/08 12:46:16;;;;;;;;;;;;;;;11.57;55.74;99524.69;4938657;28;98692;-69
2021/12/08 12:48:44;;;;;;;;;;;;;;;11.53;55.75;99523.66;4940709;28;98668;-61
2021/12/08 12:51:11;;;;;;;;;;;;;;;11.49;55.68;99528.84;4940142;28;98995;-70
2021/12/08 12:53:45;;;;;;;;;;;;;;;11.47;55.48;99536.44;4940094;28;97709;-70
2021/12/08 12:56:15;;;;;;;;;;;;;;;11.44;55.76;99538.94;4940541;28;97899;-61
2021/12/08 12:58:51;;;;;;;;;;;;;;;11.41;55.86;99540.31;4939758;28;97973;-70
2021/12/08 13:01:24;;;;;;;;;;;;;;;11.39;55.58;99547.91;4942536;28;99100;-70
2021/12/08 13:03:57;;;;;;;;;;;;;;;11.37;55.76;99549.31;4937347;28;98034;-61
2021/12/08 13:06:46;;;;;;;;;;;;;;;11.34;55.67;99544.50;4940419;28;98681;-70
2021/12/08 13:09:48;;;;;;;;;;;;;;;11.31;55.82;99546.66;4936222;28;99291;-61
2021/12/08 13:12:26;;;;;;;;;;;;;;;11.29;55.79;99531.88;4938312;28;98842;-70
2021/12/08 13:15:13;;;;;;;;;;;;;;;11.26;55.72;99532.47;4938755;28;98201;-60
2021/12/08 13:17:57;;;;;;;;;;;;;;;11.24;55.86;99543.56;4936819;28;97947;-61
2021/12/08 13:20:25;;;;;;;;;;;;;;;11.23;55.87;99533.06;4938749;28;98815;-61
2021/12/08 13:22:56;;;;;;;;;;;;;;;11.21;55.79;99533.34;4937076;28;98599;-69
2021/12/08 13:25:53;;;;;;;;;;;;;;;11.19;56.04;99529.34;4940003;28;98313;-70
2021/12/08 13:29:02;;;;;;;;;;;;;;;11.16;55.68;99536.13;4940061;28;97737;-70
2021/12/08 13:34:04;;;;;;;;;;;;;;;11.10;55.53;99534.59;4938924;28;98536;-70
2021/12/08 13:36:33;;;;;;;;;;;;;;;11.08;55.67;99542.16;4941571;28;97984;-70
2021/12/08 13:38:59;;;;;;;;;;;;;;;11.06;55.77;99531.69;4952893;28;98172;-61
2021/12/08 13:41:26;;;;;;;;;;;;;;;11.03;55.69;99526.88;4959139;28;98233;-70
2021/12/08 13:43:52;;;;;;;;;;;;;;;11.03;55.76;99526.06;4960223;28;98358;-61
2021/12/08 13:46:37;;;;;;;;;;;;;;;11.01;55.73;99529.06;4960312;28;98302;-61
2021/12/08 13:49:17;;;;;;;;;;;;;;;10.99;55.91;99525.84;4962696;28;97738;-61
2021/12/08 13:52:02;;;;;;;;;;;;;;;10.98;55.83;99532.34;4962285;28;115808;-70